sensor_id;sensor_type;location;lat;lon;timestamp;pressure;altitude;pressure_sealevel;temperature;humidity
66164;BME280;52962;51.088;3.096;2023-02-14T00:01:39;103171.28;;;5.04;100.00
66164;BME280;52962;51.088;3.096;2023-02-14T00:04:08;103168.81;;;5.05;100.00
66164;BME280;52962;51.088;3.096;2023-02-14T00:06:36;103168.00;;;5.06;100.00
66164;BME280;52962;51.088;3.096;2023-02-14T00:09:05;103164.59;;;5.07;100.00
66164;BME280;52962;51.088;3.096;2023-02-14T00:11:35;103162.78;;;5.06;100.00
66164;BME280;52962;51.088;3.096;2023-02-14T00:14:04;103158.72;;;5.10;100.00
66164;BME280;52962;51.088;3.096;2023-02-14T00:16:52;103163.03;;;5.09;100.00
66164;BME280;52962;51.088;3.096;2023-02-14T00:19:22;103155.19;;;5.09;100.00
66164;BME280;52962;51.088;3.096;2023-02-14T00:21:50;103155.75;;;5.05;100.00
66164;BME280;52962;51.088;3.096;2023-02-14T00:24:20;103152.66;;;4.99;100.00
66164;BME280;52962;51.088;3.096;2023-02-14T00:26:49;103144.06;;;4.90;100.00
66164;BME280;52962;51.088;3.096;2023-02-14T00:29:19;103150.63;;;4.85;100.00
66164;BME280;52962;51.088;3.096;2023-02-14T00:31:49;103142.44;;;4.80;100.00
66164;BME280;52962;51.088;3.096;2023-02-14T00:34:20;103142.31;;;4.79;100.00
66164;BME280;52962;51.088;3.096;2023-02-14T00:36:48;103140.22;;;4.75;100.00
66164;BME280;52962;51.088;3.096;2023-02-14T00:39:17;103133.72;;;4.70;100.00
66164;BME280;52962;51.088;3.096;2023-02-14T00:41:46;103134.28;;;4.66;100.00
66164;BME280;52962;51.088;3.096;2023-02-14T00:44:16;103129.72;;;4.63;100.00
66164;BME280;52962;51.088;3.096;2023-02-14T00:46:44;103125.28;;;4.62;100.00
66164;BME280;52962;51.088;3.096;2023-02-14T00:49:12;103124.63;;;4.65;100.00
66164;BME280;52962;51.088;3.096;2023-02-14T00:51:42;103123.72;;;4.64;100.00
66164;BME280;52962;51.088;3.096;2023-02-14T00:54:10;103124.63;;;4.65;100.00
66164;BME280;52962;51.088;3.096;2023-02-14T00:56:38;103123.72;;;4.64;100.00
66164;BME280;52962;51.088;3.096;2023-02-14T00:59:08;103120.97;;;4.63;100.00
66164;BME280;52962;51.088;3.096;2023-02-14T01:01:36;103127.53;;;4.57;100.00
66164;BME280;52962;51.088;3.096;2023-02-14T01:04:05;103124.78;;;4.56;100.00
66164;BME280;52962;51.088;3.096;2023-02-14T01:06:33;103122.47;;;4.49;100.00
66164;BME280;52962;51.088;3.096;2023-02-14T01:09:05;103114.78;;;4.50;100.00
66164;BME280;52962;51.088;3.096;2023-02-14T01:11:34;103118.13;;;4.59;100.00
66164;BME280;52962;51.088;3.096;2023-02-14T01:14:02;103119.41;;;4.65;100.00
66164;BME280;52962;51.088;3.096;2023-02-14T01:16:30;103127.72;;;4.71;100.00
66164;BME280;52962;51.088;3.096;2023-02-14T01:19:00;103125.34;;;4.74;100.00
66164;BME280;52962;51.088;3.096;2023-02-14T01:21:29;103127.44;;;4.78;100.00
66164;BME280;52962;51.088;3.096;2023-02-14T01:24:00;103125.47;;;4.75;100.00
66164;BME280;52962;51.088;3.096;2023-02-14T01:26:30;103121.47;;;4.69;100.00
66164;BME280;52962;51.088;3.096;2023-02-14T01:29:00;103123.28;;;4.70;100.00
66164;BME280;52962;51.088;3.096;2023-02-14T01:31:30;103117.22;;;4.81;100.00
66164;BME280;52962;51.088;3.096;2023-02-14T01:33:59;103116.69;;;4.85;100.00
66164;BME280;52962;51.088;3.096;2023-02-14T01:36:30;103125.44;;;4.85;100.00
66164;BME280;52962;51.088;3.096;2023-02-14T01:39:00;103127.69;;;4.81;100.00
66164;BME280;52962;51.088;3.096;2023-02-14T01:41:32;103121.19;;;4.76;100.00
66164;BME280;52962;51.088;3.096;2023-02-14T01:44:04;103124.94;;;4.79;100.00
66164;BME280;52962;51.088;3.096;2023-02-14T01:46:36;103119.59;;;4.78;100.00
66164;BME280;52962;51.088;3.096;2023-02-14T01:49:08;103124.03;;;4.79;100.00
66164;BME280;52962;51.088;3.096;2023-02-14T01:51:41;103118.81;;;4.79;100.00
66164;BME280;52962;51.088;3.096;2023-02-14T01:54:12;103119.34;;;4.75;100.00
66164;BME280;52962;51.088;3.096;2023-02-14T01:56:47;103121.72;;;4.72;100.00
66164;BME280;52962;51.088;3.096;2023-02-14T01:59:19;103125.91;;;4.70;100.00
66164;BME280;52962;51.088;3.096;2023-02-14T02:01:48;103124.19;;;4.70;100.00
66164;BME280;52962;51.088;3.096;2023-02-14T02:04:21;103118.97;;;4.70;100.00
66164;BME280;52962;51.088;3.096;2023-02-14T02:06:53;103120.06;;;4.62;100.00
66164;BME280;52962;51.088;3.096;2023-02-14T02:09:31;103118.41;;;4.52;100.00
66164;BME280;52962;51.088;3.096;2023-02-14T02:12:02;103119.50;;;4.44;100.00
66164;BME280;52962;51.088;3.096;2023-02-14T02:14:31;103114.56;;;4.37;100.00
66164;BME280;52962;51.088;3.096;2023-02-14T02:17:18;103123.72;;;4.32;100.00
66164;BME280;52962;51.088;3.096;2023-02-14T02:20:27;103117.19;;;4.27;100.00
66164;BME280;52962;51.088;3.096;2023-02-14T02:23:30;103115.91;;;4.22;100.00
66164;BME280;52962;51.088;3.096;2023-02-14T02:26:32;103114.41;;;4.14;100.00
66164;BME280;52962;51.088;3.096;2023-02-14T02:35:44;103120.72;;;3.96;100.00
66164;BME280;52962;51.088;3.096;2023-02-14T02:38:29;103111.84;;;3.93;100.00
66164;BME280;52962;51.088;3.096;2023-02-14T02:41:08;103115.91;;;3.90;100.00
66164;BME280;52962;51.088;3.096;2023-02-14T02:43:46;103112.91;;;3.85;100.00
66164;BME280;52962;51.088;3.096;2023-02-14T02:46:23;103117.72;;;3.81;100.00
66164;BME280;52962;51.088;3.096;2023-02-14T02:49:13;103115.78;;;3.78;100.00
66164;BME280;52962;51.088;3.096;2023-02-14T02:52:09;103114.47;;;3.73;100.00
66164;BME280;52962;51.088;3.096;2023-02-14T02:55:03;103112.41;;;3.69;100.00
66164;BME280;52962;51.088;3.096;2023-02-14T02:57:36;103105.09;;;3.65;100.00
66164;BME280;52962;51.088;3.096;2023-02-14T03:00:08;103104.06;;;3.63;100.00
66164;BME280;52962;51.088;3.096;2023-02-14T03:02:42;103098.34;;;3.57;100.00
66164;BME280;52962;51.088;3.096;2023-02-14T03:05:31;103094.81;;;3.56;100.00
66164;BME280;52962;51.088;3.096;2023-02-14T03:08:04;103103.56;;;3.57;100.00
66164;BME280;52962;51.088;3.096;2023-02-14T03:10:35;103102.38;;;3.53;100.00
66164;BME280;52962;51.088;3.096;2023-02-14T03:13:29;103103.03;;;3.51;100.00
66164;BME280;52962;51.088;3.096;2023-02-14T03:16:31;103112.53;;;3.50;100.00
66164;BME280;52962;51.088;3.096;2023-02-14T03:19:19;103107.97;;;3.48;100.00
66164;BME280;52962;51.088;3.096;2023-02-14T03:22:13;103098.59;;;3.40;100.00
66164;BME280;52962;51.088;3.096;2023-02-14T03:24:50;103102.78;;;3.38;100.00
66164;BME280;52962;51.088;3.096;2023-02-14T03:27:26;103111.09;;;3.34;100.00
66164;BME280;52962;51.088;3.096;2023-02-14T03:29:59;103096.13;;;3.31;100.00
66164;BME280;52962;51.088;3.096;2023-02-14T03:32:36;103092.34;;;3.27;100.00
66164;BME280;52962;51.088;3.096;2023-02-14T03:35:12;103097.44;;;3.26;100.00
66164;BME280;52962;51.088;3.096;2023-02-14T03:37:47;103093.91;;;3.25;100.00
66164;BME280;52962;51.088;3.096;2023-02-14T03:40:21;103096.38;;;3.24;100.00
66164;BME280;52962;51.088;3.096;2023-02-14T03:42:56;103085.06;;;3.23;100.00
66164;BME280;52962;51.088;3.096;2023-02-14T03:45:29;103083.38;;;3.24;100.00
66164;BME280;52962;51.088;3.096;2023-02-14T03:48:03;103086.88;;;3.24;100.00
66164;BME280;52962;51.088;3.096;2023-02-14T03:50:34;103090.25;;;3.23;100.00
66164;BME280;52962;51.088;3.096;2023-02-14T03:53:06;103084.91;;;3.22;100.00
66164;BME280;52962;51.088;3.096;2023-02-14T03:55:39;103087.41;;;3.20;100.00
66164;BME280;52962;51.088;3.096;2023-02-14T03:58:14;103088.97;;;3.18;100.00
66164;BME280;52962;51.088;3.096;2023-02-14T04:00:46;103087.13;;;3.17;100.00
66164;BME280;52962;51.088;3.096;2023-02-14T04:03:15;103075.94;;;3.18;100.00
66164;BME280;52962;51.088;3.096;2023-02-14T04:05:46;103087.13;;;3.17;100.00
66164;BME280;52962;51.088;3.096;2023-02-14T04:08:24;103091.56;;;3.18;100.00
66164;BME280;52962;51.088;3.096;2023-02-14T04:10:56;103093.38;;;3.19;100.00
66164;BME280;52962;51.088;3.096;2023-02-14T04:13:27;103087.91;;;3.26;100.00
66164;BME280;52962;51.088;3.096;2023-02-14T04:15:56;103093.53;;;3.31;100.00
66164;BME280;52962;51.088;3.096;2023-02-14T04:18:25;103088.06;;;3.28;100.00
66164;BME280;52962;51.088;3.096;2023-02-14T04:21:11;103087.28;;;3.29;100.00
66164;BME280;52962;51.088;3.096;2023-02-14T04:23:39;103096.25;;;3.33;100.00
66164;BME280;52962;51.088;3.096;2023-02-14T04:26:08;103082.19;;;3.31;100.00
66164;BME280;52962;51.088;3.096;2023-02-14T04:28:36;103089.88;;;3.29;100.00
66164;BME280;52962;51.088;3.096;2023-02-14T04:31:05;103087.13;;;3.27;100.00
66164;BME280;52962;51.088;3.096;2023-02-14T04:33:33;103096.25;;;3.22;100.00
66164;BME280;52962;51.088;3.096;2023-02-14T04:36:02;103096.78;;;3.18;100.00
66164;BME280;52962;51.088;3.096;2023-02-14T04:38:30;103092.84;;;3.13;100.00
66164;BME280;52962;51.088;3.096;2023-02-14T04:40:59;103096.91;;;3.10;100.00
66164;BME280;52962;51.088;3.096;2023-02-14T04:43:29;103089.75;;;3.07;100.00
66164;BME280;52962;51.088;3.096;2023-02-14T04:45:58;103090.25;;;3.13;100.00
66164;BME280;52962;51.088;3.096;2023-02-14T04:48:26;103089.72;;;3.17;100.00
66164;BME280;52962;51.088;3.096;2023-02-14T04:50:55;103090.66;;;3.18;100.00
66164;BME280;52962;51.088;3.096;2023-02-14T04:53:23;103098.59;;;3.19;100.00
66164;BME280;52962;51.088;3.096;2023-02-14T04:55:51;103097.69;;;3.19;100.00
66164;BME280;52962;51.088;3.096;2023-02-14T04:58:20;103096.78;;;3.18;100.00
66164;BME280;52962;51.088;3.096;2023-02-14T05:00:49;103098.59;;;3.19;100.00
66164;BME280;52962;51.088;3.096;2023-02-14T05:03:18;103101.06;;;3.18;100.00
66164;BME280;52962;51.088;3.096;2023-02-14T05:05:47;103098.19;;;3.15;100.00
66164;BME280;52962;51.088;3.096;2023-02-14T05:08:15;103105.66;;;3.10;100.00
66164;BME280;52962;51.088;3.096;2023-02-14T05:10:43;103103.81;;;3.09;100.00
66164;BME280;52962;51.088;3.096;2023-02-14T05:13:12;103098.34;;;3.06;100.00
66164;BME280;52962;51.088;3.096;2023-02-14T05:15:43;103097.03;;;3.01;100.00
66164;BME280;52962;51.088;3.096;2023-02-14T05:18:13;103095.09;;;2.99;100.00
66164;BME280;52962;51.088;3.096;2023-02-14T05:20:41;103094.56;;;3.03;100.00
66164;BME280;52962;51.088;3.096;2023-02-14T05:23:10;103103.56;;;3.06;100.00
66164;BME280;52962;51.088;3.096;2023-02-14T05:25:39;103102.78;;;3.07;100.00
66164;BME280;52962;51.088;3.096;2023-02-14T05:28:07;103106.94;;;3.05;100.00
66164;BME280;52962;51.088;3.096;2023-02-14T05:30:38;103107.97;;;3.07;100.00
66164;BME280;52962;51.088;3.096;2023-02-14T05:33:06;103107.19;;;3.08;100.00
66164;BME280;52962;51.088;3.096;2023-02-14T05:35:37;103108.47;;;3.13;100.00
66164;BME280;52962;51.088;3.096;2023-02-14T05:38:05;103103.53;;;3.16;100.00
66164;BME280;52962;51.088;3.096;2023-02-14T05:40:34;103106.13;;;3.16;100.00
66164;BME280;52962;51.088;3.096;2023-02-14T05:43:02;103105.34;;;3.17;100.00
66164;BME280;52962;51.088;3.096;2023-02-14T05:45:30;103107.19;;;3.18;100.00
66164;BME280;52962;51.088;3.096;2023-02-14T05:47:59;103102.88;;;3.19;100.00
66164;BME280;52962;51.088;3.096;2023-02-14T05:50:27;103104.56;;;3.18;100.00
66164;BME280;52962;51.088;3.096;2023-02-14T05:52:57;103101.72;;;3.15;100.00
66164;BME280;52962;51.088;3.096;2023-02-14T05:55:25;103099.88;;;3.14;100.00
66164;BME280;52962;51.088;3.096;2023-02-14T05:57:54;103095.38;;;3.12;100.00
66164;BME280;52962;51.088;3.096;2023-02-14T06:00:22;103093.41;;;3.09;100.00
66164;BME280;52962;51.088;3.096;2023-02-14T06:02:50;103094.44;;;3.11;100.00
66164;BME280;52962;51.088;3.096;2023-02-14T06:05:19;103090.25;;;3.13;100.00
66164;BME280;52962;51.088;3.096;2023-02-14T06:07:47;103091.03;;;3.12;100.00
66164;BME280;52962;51.088;3.096;2023-02-14T06:10:20;103089.25;;;3.11;100.00
66164;BME280;52962;51.088;3.096;2023-02-14T06:12:51;103097.06;;;3.11;100.00
66164;BME280;52962;51.088;3.096;2023-02-14T06:15:20;103096.00;;;3.09;100.00
66164;BME280;52962;51.088;3.096;2023-02-14T06:17:52;103082.88;;;3.08;100.00
66164;BME280;52962;51.088;3.096;2023-02-14T06:20:22;103087.66;;;3.03;100.00
66164;BME280;52962;51.088;3.096;2023-02-14T06:22:51;103085.06;;;3.03;100.00
66164;BME280;52962;51.088;3.096;2023-02-14T06:25:21;103098.72;;;3.01;100.00
66164;BME280;52962;51.088;3.096;2023-02-14T06:27:49;103095.22;;;3.00;100.00
66164;BME280;52962;51.088;3.096;2023-02-14T06:30:18;103094.94;;;2.97;100.00
66164;BME280;52962;51.088;3.096;2023-02-14T06:32:46;103092.22;;;2.95;100.00
66164;BME280;52962;51.088;3.096;2023-02-14T06:35:16;103095.47;;;2.93;100.00
66164;BME280;52962;51.088;3.096;2023-02-14T06:37:45;103097.03;;;2.91;100.00
66164;BME280;52962;51.088;3.096;2023-02-14T06:40:14;103096.25;;;2.92;100.00
66164;BME280;52962;51.088;3.096;2023-02-14T06:42:44;103098.72;;;2.90;100.00
66164;BME280;52962;51.088;3.096;2023-02-14T06:45:12;103101.19;;;2.89;100.00
66164;BME280;52962;51.088;3.096;2023-02-14T06:47:40;103098.31;;;2.86;100.00
66164;BME280;52962;51.088;3.096;2023-02-14T06:50:09;103105.22;;;2.85;100.00
66164;BME280;52962;51.088;3.096;2023-02-14T06:52:38;103099.88;;;2.84;100.00
66164;BME280;52962;51.088;3.096;2023-02-14T06:55:07;103102.75;;;2.87;100.00
66164;BME280;52962;51.088;3.096;2023-02-14T06:57:37;103114.97;;;2.88;100.00
66164;BME280;52962;51.088;3.096;2023-02-14T07:00:08;103108.84;;;2.87;100.00
66164;BME280;52962;51.088;3.096;2023-02-14T07:02:37;103109.22;;;2.82;100.00
66164;BME280;52962;51.088;3.096;2023-02-14T07:05:06;103104.53;;;2.78;100.00
66164;BME280;52962;51.088;3.096;2023-02-14T07:07:33;103112.06;;;2.75;100.00
66164;BME280;52962;51.088;3.096;2023-02-14T07:10:03;103107.91;;;2.77;100.00
66164;BME280;52962;51.088;3.096;2023-02-14T07:12:35;103105.59;;;2.80;100.00
66164;BME280;52962;51.088;3.096;2023-02-14T07:15:08;103101.28;;;2.80;100.00
66164;BME280;52962;51.088;3.096;2023-02-14T07:17:38;103097.50;;;2.77;100.00
66164;BME280;52962;51.088;3.096;2023-02-14T07:20:08;103103.75;;;2.79;100.00
66164;BME280;52962;51.088;3.096;2023-02-14T07:22:36;103111.97;;;2.83;100.00
66164;BME280;52962;51.088;3.096;2023-02-14T07:25:05;103106.25;;;2.87;100.00
66164;BME280;52962;51.088;3.096;2023-02-14T07:27:33;103113.41;;;2.90;100.00
66164;BME280;52962;51.088;3.096;2023-02-14T07:30:02;103105.75;;;2.91;100.00
66164;BME280;52962;51.088;3.096;2023-02-14T07:32:32;103100.81;;;2.94;100.00
66164;BME280;52962;51.088;3.096;2023-02-14T07:35:01;103102.75;;;2.97;100.00
66164;BME280;52962;51.088;3.096;2023-02-14T07:37:31;103106.53;;;3.01;100.00
66164;BME280;52962;51.088;3.096;2023-02-14T07:39:59;103104.06;;;3.02;100.00
66164;BME280;52962;51.088;3.096;2023-02-14T07:42:27;103095.75;;;3.06;100.00
66164;BME280;52962;51.088;3.096;2023-02-14T07:44:56;103090.81;;;3.09;100.00
66164;BME280;52962;51.088;3.096;2023-02-14T07:47:26;103091.03;;;3.12;100.00
66164;BME280;52962;51.088;3.096;2023-02-14T07:49:56;103092.34;;;3.17;100.00
66164;BME280;52962;51.088;3.096;2023-02-14T07:52:24;103086.34;;;3.18;100.00
66164;BME280;52962;51.088;3.096;2023-02-14T07:54:52;103089.09;;;3.20;100.00
66164;BME280;52962;51.088;3.096;2023-02-14T07:57:20;103094.44;;;3.21;100.00
66164;BME280;52962;51.088;3.096;2023-02-14T07:59:49;103091.19;;;3.24;100.00
66164;BME280;52962;51.088;3.096;2023-02-14T08:02:17;103102.75;;;3.27;100.00
66164;BME280;52962;51.088;3.096;2023-02-14T08:04:47;103102.75;;;3.27;100.00
66164;BME280;52962;51.088;3.096;2023-02-14T08:07:17;103094.81;;;3.26;100.00
66164;BME280;52962;51.088;3.096;2023-02-14T08:09:45;103093.13;;;3.26;100.00
66164;BME280;52962;51.088;3.096;2023-02-14T08:12:14;103096.78;;;3.28;100.00
66164;BME280;52962;51.088;3.096;2023-02-14T08:15:00;103104.84;;;3.32;100.00
66164;BME280;52962;51.088;3.096;2023-02-14T08:17:42;103106.03;;;3.35;100.00
66164;BME280;52962;51.088;3.096;2023-02-14T08:20:11;103102.00;;;3.39;100.00
66164;BME280;52962;51.088;3.096;2023-02-14T08:22:41;103091.69;;;3.40;100.00
66164;BME280;52962;51.088;3.096;2023-02-14T08:25:09;103101.59;;;3.44;100.00
66164;BME280;52962;51.088;3.096;2023-02-14T08:27:37;103090.53;;;3.47;100.00
66164;BME280;52962;51.088;3.096;2023-02-14T08:30:06;103098.47;;;3.48;100.00
66164;BME280;52962;51.088;3.096;2023-02-14T08:32:36;103091.81;;;3.52;100.00
66164;BME280;52962;51.088;3.096;2023-02-14T08:35:05;103092.09;;;3.55;100.00
66164;BME280;52962;51.088;3.096;2023-02-14T08:37:34;103089.75;;;3.58;100.00
66164;BME280;52962;51.088;3.096;2023-02-14T08:40:05;103093.66;;;3.63;100.00
66164;BME280;52962;51.088;3.096;2023-02-14T08:42:34;103090.50;;;3.67;100.00
66164;BME280;52962;51.088;3.096;2023-02-14T08:45:03;103093.63;;;3.73;100.00
66164;BME280;52962;51.088;3.096;2023-02-14T08:47:32;103087.09;;;3.78;100.00
66164;BME280;52962;51.088;3.096;2023-02-14T08:50:01;103085.78;;;3.83;100.00
66164;BME280;52962;51.088;3.096;2023-02-14T08:52:30;103083.56;;;3.88;100.00
66164;BME280;52962;51.088;3.096;2023-02-14T08:54:58;103092.69;;;3.93;100.00
66164;BME280;52962;51.088;3.096;2023-02-14T08:57:29;103089.69;;;3.99;100.00
66164;BME280;52962;51.088;3.096;2023-02-14T08:59:57;103090.19;;;4.05;100.00
66164;BME280;52962;51.088;3.096;2023-02-14T09:02:26;103087.03;;;4.09;100.00
66164;BME280;52962;51.088;3.096;2023-02-14T09:04:55;103095.25;;;4.13;100.00
66164;BME280;52962;51.088;3.096;2023-02-14T09:07:23;103094.78;;;4.19;100.00
66164;BME280;52962;51.088;3.096;2023-02-14T09:09:52;103094.50;;;4.26;100.00
66164;BME280;52962;51.088;3.096;2023-02-14T09:12:20;103083.53;;;4.30;100.00
66164;BME280;52962;51.088;3.096;2023-02-14T09:14:51;103089.25;;;4.36;100.00
66164;BME280;52962;51.088;3.096;2023-02-14T09:17:19;103090.41;;;4.40;100.00
66164;BME280;52962;51.088;3.096;2023-02-14T09:19:48;103084.13;;;4.48;100.00
66164;BME280;52962;51.088;3.096;2023-02-14T09:22:17;103086.31;;;4.53;100.00
66164;BME280;52962;51.088;3.096;2023-02-14T09:24:46;103088.63;;;4.60;100.00
66164;BME280;52962;51.088;3.096;2023-02-14T09:27:14;103091.59;;;4.65;100.00
66164;BME280;52962;51.088;3.096;2023-02-14T09:29:45;103090.38;;;4.72;100.00
66164;BME280;52962;51.088;3.096;2023-02-14T09:32:15;103089.19;;;4.78;100.00
66164;BME280;52962;51.088;3.096;2023-02-14T09:34:44;103079.09;;;4.83;100.00
66164;BME280;52962;51.088;3.096;2023-02-14T09:37:12;103094.34;;;4.88;100.00
66164;BME280;52962;51.088;3.096;2023-02-14T09:39:41;103097.56;;;4.96;100.00
66164;BME280;52962;51.088;3.096;2023-02-14T09:42:20;103091.47;;;5.07;100.00
66164;BME280;52962;51.088;3.096;2023-02-14T09:44:51;103089.47;;;5.15;100.00
66164;BME280;52962;51.088;3.096;2023-02-14T09:47:32;103082.19;;;5.22;100.00
66164;BME280;52962;51.088;3.096;2023-02-14T09:50:06;103080.84;;;5.28;100.00
66164;BME280;52962;51.088;3.096;2023-02-14T09:52:42;103084.72;;;5.33;100.00
66164;BME280;52962;51.088;3.096;2023-02-14T09:55:12;103083.72;;;5.42;100.00
66164;BME280;52962;51.088;3.096;2023-02-14T09:57:46;103088.88;;;5.52;100.00
66164;BME280;52962;51.088;3.096;2023-02-14T10:00:33;103087.06;;;5.63;100.00
66164;BME280;52962;51.088;3.096;2023-02-14T10:03:34;103082.31;;;5.69;100.00
66164;BME280;52962;51.088;3.096;2023-02-14T10:06:11;103083.13;;;5.80;100.00
66164;BME280;52962;51.088;3.096;2023-02-14T10:08:51;103075.84;;;5.87;100.00
66164;BME280;52962;51.088;3.096;2023-02-14T10:11:23;103079.38;;;5.88;100.00
66164;BME280;52962;51.088;3.096;2023-02-14T10:13:56;103083.72;;;5.99;100.00
66164;BME280;52962;51.088;3.096;2023-02-14T10:16:30;103077.59;;;6.10;100.00
66164;BME280;52962;51.088;3.096;2023-02-14T10:19:05;103073.84;;;6.18;100.00
66164;BME280;52962;51.088;3.096;2023-02-14T10:21:39;103078.00;;;6.28;100.00
66164;BME280;52962;51.088;3.096;2023-02-14T10:24:12;103072.53;;;6.37;100.00
66164;BME280;52962;51.088;3.096;2023-02-14T10:26:42;103076.50;;;6.43;100.00
66164;BME280;52962;51.088;3.096;2023-02-14T10:29:13;103074.56;;;6.52;100.00
66164;BME280;52962;51.088;3.096;2023-02-14T10:31:47;103072.47;;;6.60;100.00
66164;BME280;52962;51.088;3.096;2023-02-14T10:34:33;103071.09;;;6.65;100.00
66164;BME280;52962;51.088;3.096;2023-02-14T10:37:20;103075.28;;;6.75;100.00
66164;BME280;52962;51.088;3.096;2023-02-14T10:40:00;103073.34;;;6.72;100.00
66164;BME280;52962;51.088;3.096;2023-02-14T10:42:37;103071.53;;;6.71;100.00
66164;BME280;52962;51.088;3.096;2023-02-14T10:45:17;103068.53;;;6.90;100.00
66164;BME280;52962;51.088;3.096;2023-02-14T10:47:52;103063.94;;;6.99;100.00
66164;BME280;52962;51.088;3.096;2023-02-14T10:50:32;103063.94;;;6.99;100.00
66164;BME280;52962;51.088;3.096;2023-02-14T10:53:11;103058.63;;;7.11;100.00
66164;BME280;52962;51.088;3.096;2023-02-14T10:55:45;103059.88;;;7.16;100.00
66164;BME280;52962;51.088;3.096;2023-02-14T10:58:18;103058.38;;;7.19;100.00
66164;BME280;52962;51.088;3.096;2023-02-14T11:00:54;103054.84;;;7.32;100.00
66164;BME280;52962;51.088;3.096;2023-02-14T11:03:26;103047.72;;;7.43;100.00
66164;BME280;52962;51.088;3.096;2023-02-14T11:05:56;103051.56;;;7.48;100.00
66164;BME280;52962;51.088;3.096;2023-02-14T11:08:27;103048.44;;;7.53;100.00
66164;BME280;52962;51.088;3.096;2023-02-14T11:11:00;103047.16;;;7.60;100.00
66164;BME280;52962;51.088;3.096;2023-02-14T11:13:33;103047.16;;;7.60;100.00
66164;BME280;52962;51.088;3.096;2023-02-14T11:16:04;103027.19;;;7.75;100.00
66164;BME280;52962;51.088;3.096;2023-02-14T11:18:35;103027.59;;;7.81;100.00
66164;BME280;52962;51.088;3.096;2023-02-14T11:21:09;103012.44;;;7.64;100.00
66164;BME280;52962;51.088;3.096;2023-02-14T11:23:39;-21627.22;;;7.76;100.00
66164;BME280;52962;51.088;3.096;2023-02-14T11:26:13;58706.69;;;-145.67;100.00
66164;BME280;52962;51.088;3.096;2023-02-14T11:28:50;103023.34;;;8.10;100.00
66164;BME280;52962;51.088;3.096;2023-02-14T11:31:38;103014.44;;;8.21;100.00
66164;BME280;52962;51.088;3.096;2023-02-14T11:34:22;103012.00;;;8.37;100.00
66164;BME280;52962;51.088;3.096;2023-02-14T11:36:54;103005.31;;;8.42;100.00
66164;BME280;52962;51.088;3.096;2023-02-14T11:39:27;103000.31;;;8.60;100.00
66164;BME280;52962;51.088;3.096;2023-02-14T11:41:58;103000.56;;;8.78;100.00
66164;BME280;52962;51.088;3.096;2023-02-14T11:44:29;102989.94;;;9.04;100.00
66164;BME280;52962;51.088;3.096;2023-02-14T11:47:17;102982.88;;;9.33;100.00
66164;BME280;52962;51.088;3.096;2023-02-14T11:49:56;102976.75;;;9.63;100.00
66164;BME280;52962;51.088;3.096;2023-02-14T11:52:26;102974.72;;;9.89;100.00
66164;BME280;52962;51.088;3.096;2023-02-14T11:54:56;102971.50;;;10.09;100.00
66164;BME280;52962;51.088;3.096;2023-02-14T11:57:28;102956.94;;;10.15;100.00
66164;BME280;52962;51.088;3.096;2023-02-14T12:00:00;102955.00;;;10.44;100.00
66164;BME280;52962;51.088;3.096;2023-02-14T12:02:39;102946.94;;;10.57;100.00
66164;BME280;52962;51.088;3.096;2023-02-14T12:05:16;102942.16;;;10.66;100.00
66164;BME280;52962;51.088;3.096;2023-02-14T12:07:48;102948.41;;;10.85;100.00
66164;BME280;52962;51.088;3.096;2023-02-14T12:10:23;102939.31;;;11.12;100.00
66164;BME280;52962;51.088;3.096;2023-02-14T12:12:53;102945.97;;;11.22;100.00
66164;BME280;52962;51.088;3.096;2023-02-14T12:15:28;102944.09;;;11.37;100.00
66164;BME280;52962;51.088;3.096;2023-02-14T12:18:19;102938.91;;;11.38;100.00
66164;BME280;52962;51.088;3.096;2023-02-14T12:20:55;102936.91;;;11.52;100.00
66164;BME280;52962;51.088;3.096;2023-02-14T12:23:34;102928.94;;;11.51;100.00
66164;BME280;52962;51.088;3.096;2023-02-14T12:26:14;102924.56;;;11.51;100.00
66164;BME280;52962;51.088;3.096;2023-02-14T12:28:48;102924.56;;;11.51;100.00
66164;BME280;52962;51.088;3.096;2023-02-14T12:31:19;102925.84;;;11.59;100.00
66164;BME280;52962;51.088;3.096;2023-02-14T12:33:48;102924.72;;;11.54;100.00
66164;BME280;52962;51.088;3.096;2023-02-14T12:36:37;102923.66;;;11.68;100.00
66164;BME280;52962;51.088;3.096;2023-02-14T12:39:18;102924.56;;;11.69;100.00
66164;BME280;52962;51.088;3.096;2023-02-14T12:41:58;102922.44;;;11.62;100.00
66164;BME280;52962;51.088;3.096;2023-02-14T12:44:39;102916.03;;;11.57;100.00
66164;BME280;52962;51.088;3.096;2023-02-14T12:47:17;102919.44;;;11.54;100.00
66164;BME280;52962;51.088;3.096;2023-02-14T12:50:04;102921.69;;;11.46;100.00
66164;BME280;52962;51.088;3.096;2023-02-14T12:52:52;102921.56;;;11.43;100.00
66164;BME280;52962;51.088;3.096;2023-02-14T12:55:40;102917.34;;;11.29;100.00
66164;BME280;52962;51.088;3.096;2023-02-14T12:58:23;102923.50;;;11.30;100.00
66164;BME280;52962;51.088;3.096;2023-02-14T13:01:02;102912.66;;;11.24;100.00
66164;BME280;52962;51.088;3.096;2023-02-14T13:04:04;102909.94;;;11.22;100.00
66164;BME280;52962;51.088;3.096;2023-02-14T13:06:46;102909.91;;;11.04;100.00
66164;BME280;52962;51.088;3.096;2023-02-14T13:09:28;102896.06;;;11.08;100.00
66164;BME280;52962;51.088;3.096;2023-02-14T13:12:11;102896.06;;;11.08;100.00
66164;BME280;52962;51.088;3.096;2023-02-14T13:14:51;102887.78;;;11.19;100.00
66164;BME280;52962;51.088;3.096;2023-02-14T13:17:25;58706.69;;;-145.67;100.00
66164;BME280;52962;51.088;3.096;2023-02-14T13:20:11;58706.69;;;-145.67;100.00
66164;BME280;52962;51.088;3.096;2023-02-14T13:22:44;58706.69;;;-145.67;100.00
66164;BME280;52962;51.088;3.096;2023-02-14T13:25:21;58706.69;;;-145.67;100.00